KNE883 OEDF-OPLA
Flight info
| Callsign | KNE883 |
|---|---|
| Flight time | N/A |
| Altitude | 35000 |
| Route | ROTEL N572 DASUT N717 KHM M561 ASVIB G665 PG G214 BIREX/N0459F370 G214 VEREN |
| Aircraft | A320/M-SDE3FGHIRWY/LB1 |
Departure
| Time | 2026-05-09 18:02 |
|---|---|
| Airport | King Fahd International Airport (OEDF) |
Arrival
| Time | N/A |
|---|---|
| Airport | Allama Iqbal International Airport (OPLA) |
| Time | Latitude | Longitude | Altitude | Speed | Heading |
|---|---|---|---|---|---|
| 2026-05-09 17:32 | 26.46957 | 49.79485 | 68 ft | 0 kts | 66° |
| 2026-05-09 17:45 | 26.46956 | 49.79483 | 68 ft | 0 kts | 66° |
| 2026-05-09 17:45 | 26.46953 | 49.79473 | 60 ft | 2 kts | 66° |
| 2026-05-09 17:46 | 26.46946 | 49.79456 | 58 ft | 2 kts | 67° |
| 2026-05-09 17:46 | 26.46940 | 49.79440 | 61 ft | 2 kts | 67° |
| 2026-05-09 17:46 | 26.46934 | 49.79423 | 59 ft | 2 kts | 65° |
| 2026-05-09 17:46 | 26.46926 | 49.79408 | 58 ft | 2 kts | 43° |
| 2026-05-09 17:47 | 26.46912 | 49.79398 | 57 ft | 2 kts | 8° |
| 2026-05-09 17:47 | 26.46896 | 49.79397 | 60 ft | 2 kts | 349° |
| 2026-05-09 17:47 | 26.46892 | 49.79397 | 61 ft | 0 kts | 345° |
| 2026-05-09 17:51 | 26.46892 | 49.79398 | 61 ft | 0 kts | 345° |
| 2026-05-09 17:53 | 26.46892 | 49.79397 | 67 ft | 1 kts | 345° |
| 2026-05-09 17:53 | 26.46911 | 49.79390 | 66 ft | 5 kts | 337° |
| 2026-05-09 17:53 | 26.46954 | 49.79367 | 63 ft | 9 kts | 334° |
| 2026-05-09 17:54 | 26.47012 | 49.79319 | 64 ft | 12 kts | 297° |
| 2026-05-09 17:54 | 26.47005 | 49.79210 | 66 ft | 16 kts | 256° |
| 2026-05-09 17:54 | 26.46981 | 49.79087 | 65 ft | 17 kts | 274° |
| 2026-05-09 17:54 | 26.47066 | 49.79016 | 61 ft | 17 kts | 344° |
| 2026-05-09 17:55 | 26.47184 | 49.78979 | 60 ft | 18 kts | 345° |
| 2026-05-09 17:55 | 26.47307 | 49.78940 | 62 ft | 19 kts | 344° |
| 2026-05-09 17:55 | 26.47438 | 49.78899 | 62 ft | 20 kts | 344° |
| 2026-05-09 17:55 | 26.47575 | 49.78858 | 61 ft | 21 kts | 345° |
| 2026-05-09 17:56 | 26.47715 | 49.78816 | 58 ft | 21 kts | 344° |
| 2026-05-09 17:56 | 26.47860 | 49.78771 | 60 ft | 22 kts | 345° |
| 2026-05-09 17:56 | 26.48007 | 49.78726 | 56 ft | 22 kts | 344° |
| 2026-05-09 17:57 | 26.48314 | 49.78631 | 54 ft | 23 kts | 344° |
| 2026-05-09 17:57 | 26.48471 | 49.78581 | 61 ft | 24 kts | 344° |
| 2026-05-09 17:57 | 26.48630 | 49.78533 | 56 ft | 24 kts | 345° |
| 2026-05-09 17:57 | 26.48789 | 49.78483 | 53 ft | 24 kts | 345° |
| 2026-05-09 17:58 | 26.48907 | 49.78388 | 60 ft | 20 kts | 266° |
| 2026-05-09 17:58 | 26.48878 | 49.78261 | 55 ft | 11 kts | 247° |
| 2026-05-09 17:58 | 26.48869 | 49.78242 | 55 ft | 0 kts | 240° |
| 2026-05-09 18:01 | 26.48842 | 49.78206 | 62 ft | 10 kts | 221° |
| 2026-05-09 18:01 | 26.48760 | 49.78175 | 58 ft | 15 kts | 180° |
| 2026-05-09 18:01 | 26.48528 | 49.78241 | 56 ft | 69 kts | 164° |
| 2026-05-09 18:01 | 26.47847 | 49.78452 | 55 ft | 132 kts | 164° |
| 2026-05-09 18:02 | 26.46794 | 49.78776 | 63 ft | 180 kts | 165° |
| 2026-05-09 18:02 | 26.45515 | 49.79143 | 449 ft | 194 kts | 165° |
| 2026-05-09 18:02 | 26.44216 | 49.79531 | 1134 ft | 192 kts | 163° |
| 2026-05-09 18:02 | 26.42894 | 49.79944 | 1611 ft | 208 kts | 161° |
| 2026-05-09 18:03 | 26.41445 | 49.80407 | 1913 ft | 230 kts | 162° |
| 2026-05-09 18:03 | 26.39839 | 49.80914 | 2145 ft | 252 kts | 163° |
| 2026-05-09 18:03 | 26.38077 | 49.81466 | 2393 ft | 274 kts | 163° |
| 2026-05-09 18:03 | 26.36326 | 49.82356 | 2919 ft | 280 kts | 137° |
| 2026-05-09 18:04 | 26.35252 | 49.84122 | 3556 ft | 276 kts | 102° |
| 2026-05-09 18:04 | 26.35236 | 49.86208 | 4201 ft | 271 kts | 68° |
| 2026-05-09 18:04 | 26.36261 | 49.87913 | 4839 ft | 267 kts | 33° |
| 2026-05-09 18:04 | 26.37942 | 49.88699 | 5493 ft | 264 kts | 7° |
| 2026-05-09 18:05 | 26.39771 | 49.88886 | 6178 ft | 266 kts | 0° |
| 2026-05-09 18:05 | 26.41588 | 49.89413 | 6754 ft | 280 kts | 27° |
| 2026-05-09 18:05 | 26.43045 | 49.90876 | 6931 ft | 287 kts | 48° |
| 2026-05-09 18:05 | 26.44116 | 49.92737 | 6967 ft | 290 kts | 57° |
| 2026-05-09 18:06 | 26.45031 | 49.94739 | 6968 ft | 290 kts | 60° |
| 2026-05-09 18:06 | 26.45918 | 49.96758 | 7066 ft | 290 kts | 59° |
| 2026-05-09 18:06 | 26.46843 | 49.98763 | 7208 ft | 291 kts | 58° |
| 2026-05-09 18:06 | 26.47812 | 50.00739 | 7350 ft | 291 kts | 56° |
| 2026-05-09 18:07 | 26.48817 | 50.02691 | 7488 ft | 292 kts | 55° |
| 2026-05-09 18:07 | 26.49858 | 50.04649 | 7631 ft | 292 kts | 54° |
| 2026-05-09 18:07 | 26.50907 | 50.06588 | 7770 ft | 292 kts | 54° |
| 2026-05-09 18:07 | 26.51967 | 50.08526 | 7911 ft | 293 kts | 54° |
| 2026-05-09 18:08 | 26.53031 | 50.10471 | 8045 ft | 294 kts | 54° |
| 2026-05-09 18:08 | 26.54083 | 50.12399 | 8188 ft | 295 kts | 54° |
| 2026-05-09 18:08 | 26.55151 | 50.14358 | 8336 ft | 296 kts | 54° |
| 2026-05-09 18:08 | 26.56217 | 50.16316 | 8481 ft | 296 kts | 54° |
| 2026-05-09 18:09 | 26.57283 | 50.18280 | 8630 ft | 297 kts | 54° |
| 2026-05-09 18:09 | 26.58357 | 50.20260 | 8742 ft | 297 kts | 54° |
| 2026-05-09 18:09 | 26.59434 | 50.22239 | 8840 ft | 298 kts | 53° |
| 2026-05-09 18:09 | 26.60510 | 50.24218 | 8942 ft | 299 kts | 53° |
| 2026-05-09 18:10 | 26.61593 | 50.26212 | 9110 ft | 303 kts | 53° |
| 2026-05-09 18:10 | 26.62317 | 50.27545 | 9592 ft | 303 kts | 53° |
| 2026-05-09 18:10 | 26.63783 | 50.30250 | 10253 ft | 317 kts | 54° |
| 2026-05-09 18:10 | 26.64967 | 50.32423 | 10379 ft | 339 kts | 54° |
| 2026-05-09 18:11 | 26.66232 | 50.34748 | 10502 ft | 360 kts | 55° |
| 2026-05-09 18:12 | 26.69596 | 50.45918 | 12277 ft | 394 kts | 71° |
| 2026-05-09 18:12 | 26.70374 | 50.48845 | 12861 ft | 397 kts | 71° |
| 2026-05-09 18:12 | 26.71164 | 50.51815 | 13445 ft | 399 kts | 71° |
| 2026-05-09 18:12 | 26.71952 | 50.54793 | 13973 ft | 402 kts | 71° |
| 2026-05-09 18:13 | 26.72745 | 50.57801 | 14469 ft | 404 kts | 71° |
| 2026-05-09 18:13 | 26.73541 | 50.60835 | 14966 ft | 407 kts | 72° |
| 2026-05-09 18:13 | 26.74338 | 50.63884 | 15450 ft | 410 kts | 72° |
| 2026-05-09 18:13 | 26.75142 | 50.66951 | 15924 ft | 412 kts | 72° |
| 2026-05-09 18:14 | 26.75942 | 50.70004 | 16381 ft | 415 kts | 72° |
| 2026-05-09 18:14 | 26.76754 | 50.73108 | 16852 ft | 418 kts | 72° |
| 2026-05-09 18:14 | 26.77571 | 50.76251 | 17311 ft | 421 kts | 72° |
| 2026-05-09 18:14 | 26.78389 | 50.79407 | 17783 ft | 424 kts | 72° |
| 2026-05-09 18:15 | 26.79212 | 50.82589 | 18244 ft | 427 kts | 73° |
| 2026-05-09 18:15 | 26.80045 | 50.85787 | 18615 ft | 430 kts | 73° |
| 2026-05-09 18:15 | 26.80888 | 50.89009 | 18981 ft | 433 kts | 72° |
| 2026-05-09 18:15 | 26.81736 | 50.92247 | 19345 ft | 436 kts | 72° |
| 2026-05-09 18:16 | 26.82578 | 50.95479 | 19711 ft | 439 kts | 73° |
| 2026-05-09 18:16 | 26.83391 | 50.98782 | 20082 ft | 441 kts | 74° |
| 2026-05-09 18:16 | 26.84136 | 51.02121 | 20440 ft | 444 kts | 75° |
| 2026-05-09 18:16 | 26.84840 | 51.05502 | 20796 ft | 447 kts | 76° |
| 2026-05-09 18:17 | 26.85528 | 51.08897 | 21143 ft | 449 kts | 76° |
| 2026-05-09 18:17 | 26.86209 | 51.12332 | 21494 ft | 452 kts | 79° |
| 2026-05-09 18:17 | 26.86527 | 51.15846 | 21824 ft | 456 kts | 88° |
| 2026-05-09 18:17 | 26.86336 | 51.19396 | 22155 ft | 459 kts | 98° |
| 2026-05-09 18:18 | 26.85634 | 51.22886 | 22484 ft | 462 kts | 108° |
| 2026-05-09 18:18 | 26.84611 | 51.26303 | 22803 ft | 464 kts | 109° |
| 2026-05-09 18:18 | 26.83579 | 51.29741 | 23116 ft | 466 kts | 109° |
| 2026-05-09 18:18 | 26.82549 | 51.33193 | 23425 ft | 469 kts | 109° |
| 2026-05-09 18:19 | 26.81529 | 51.36615 | 23678 ft | 471 kts | 109° |
| 2026-05-09 18:19 | 26.79437 | 51.43600 | 24184 ft | 475 kts | 109° |
| 2026-05-09 18:19 | 26.78379 | 51.47113 | 24431 ft | 477 kts | 109° |
| 2026-05-09 18:20 | 26.77316 | 51.50639 | 24670 ft | 479 kts | 109° |
| 2026-05-09 18:20 | 26.76249 | 51.54174 | 24897 ft | 482 kts | 110° |
| 2026-05-09 18:20 | 26.75186 | 51.57692 | 25128 ft | 484 kts | 110° |
| 2026-05-09 18:20 | 26.74106 | 51.61265 | 25351 ft | 486 kts | 110° |
| 2026-05-09 18:21 | 26.73024 | 51.64854 | 25570 ft | 488 kts | 110° |
| 2026-05-09 18:21 | 26.71941 | 51.68460 | 25789 ft | 490 kts | 110° |
| 2026-05-09 18:21 | 26.70858 | 51.72081 | 25997 ft | 493 kts | 110° |
| 2026-05-09 18:21 | 26.69771 | 51.75720 | 26202 ft | 495 kts | 110° |
| 2026-05-09 18:22 | 26.68675 | 51.79383 | 26409 ft | 497 kts | 110° |
| 2026-05-09 18:22 | 26.67575 | 51.83047 | 26598 ft | 499 kts | 110° |
| 2026-05-09 18:22 | 26.66468 | 51.86738 | 26787 ft | 501 kts | 111° |
| 2026-05-09 18:22 | 26.65356 | 51.90432 | 26970 ft | 503 kts | 111° |
| 2026-05-09 18:23 | 26.64229 | 51.94077 | 27141 ft | 504 kts | 112° |
| 2026-05-09 18:23 | 26.63044 | 51.97770 | 27318 ft | 506 kts | 112° |
| 2026-05-09 18:23 | 26.61826 | 52.01462 | 27479 ft | 507 kts | 113° |
| 2026-05-09 18:23 | 26.60591 | 52.05160 | 27647 ft | 509 kts | 114° |
| 2026-05-09 18:24 | 26.59353 | 52.08864 | 27880 ft | 509 kts | 114° |
| 2026-05-09 18:24 | 26.58126 | 52.12565 | 28118 ft | 508 kts | 114° |
| 2026-05-09 18:24 | 26.56906 | 52.16275 | 28355 ft | 508 kts | 114° |
| 2026-05-09 18:25 | 26.54491 | 52.23697 | 28817 ft | 508 kts | 114° |
| 2026-05-09 18:25 | 26.53302 | 52.27352 | 29059 ft | 508 kts | 114° |
| 2026-05-09 18:25 | 26.52091 | 52.31058 | 29306 ft | 507 kts | 114° |
| 2026-05-09 18:25 | 26.50875 | 52.34757 | 29547 ft | 507 kts | 115° |
| 2026-05-09 18:26 | 26.49659 | 52.38443 | 29794 ft | 506 kts | 115° |
| 2026-05-09 18:26 | 26.48443 | 52.42132 | 30033 ft | 506 kts | 115° |
| 2026-05-09 18:26 | 26.47236 | 52.45806 | 30240 ft | 505 kts | 115° |
| 2026-05-09 18:26 | 26.46027 | 52.49481 | 30459 ft | 504 kts | 115° |
| 2026-05-09 18:27 | 26.44813 | 52.53157 | 30673 ft | 504 kts | 115° |
| 2026-05-09 18:27 | 26.44009 | 52.55586 | 30831 ft | 503 kts | 115° |
| 2026-05-09 18:27 | 26.42405 | 52.60423 | 31097 ft | 502 kts | 115° |
| 2026-05-09 18:27 | 26.41333 | 52.64140 | 31305 ft | 507 kts | 108° |
| 2026-05-09 18:28 | 26.40596 | 52.67999 | 31511 ft | 508 kts | 106° |
| 2026-05-09 18:28 | 26.39873 | 52.71857 | 31720 ft | 508 kts | 106° |
| 2026-05-09 18:28 | 26.39144 | 52.75704 | 31932 ft | 507 kts | 107° |
| 2026-05-09 18:28 | 26.38406 | 52.79548 | 32141 ft | 507 kts | 107° |
| 2026-05-09 18:29 | 26.37665 | 52.83395 | 32348 ft | 507 kts | 107° |
| 2026-05-09 18:29 | 26.36935 | 52.87186 | 32562 ft | 507 kts | 107° |
| 2026-05-09 18:29 | 26.36197 | 52.91033 | 32763 ft | 507 kts | 107° |
| 2026-05-09 18:29 | 26.35463 | 52.94870 | 32970 ft | 507 kts | 107° |
| 2026-05-09 18:30 | 26.34725 | 52.98710 | 33182 ft | 507 kts | 107° |
| 2026-05-09 18:30 | 26.33983 | 53.02556 | 33396 ft | 507 kts | 107° |
| 2026-05-09 18:30 | 26.33247 | 53.06384 | 33613 ft | 506 kts | 107° |
| 2026-05-09 18:30 | 26.32507 | 53.10224 | 33817 ft | 506 kts | 107° |
| 2026-05-09 18:31 | 26.31765 | 53.14066 | 33973 ft | 507 kts | 107° |
| 2026-05-09 18:31 | 26.31125 | 53.17938 | 34086 ft | 512 kts | 100° |
| 2026-05-09 18:31 | 26.30954 | 53.21917 | 34200 ft | 518 kts | 92° |
| 2026-05-09 18:31 | 26.31053 | 53.25936 | 34302 ft | 519 kts | 91° |
| 2026-05-09 18:32 | 26.31150 | 53.29901 | 34414 ft | 519 kts | 92° |
| 2026-05-09 18:32 | 26.31244 | 53.33928 | 34528 ft | 520 kts | 92° |
| 2026-05-09 18:32 | 26.31334 | 53.37964 | 34630 ft | 520 kts | 92° |
| 2026-05-09 18:32 | 26.31422 | 53.41984 | 34784 ft | 520 kts | 92° |
| 2026-05-09 18:33 | 26.31507 | 53.46013 | 34847 ft | 521 kts | 92° |
| 2026-05-09 18:33 | 26.31667 | 53.54126 | 34853 ft | 526 kts | 92° |
| 2026-05-09 18:34 | 26.31832 | 53.62225 | 34849 ft | 529 kts | 92° |
| 2026-05-09 18:34 | 26.32003 | 53.70471 | 34845 ft | 531 kts | 92° |
| 2026-05-09 18:35 | 26.32165 | 53.78709 | 34847 ft | 533 kts | 92° |
| 2026-05-09 18:35 | 26.32318 | 53.86970 | 34842 ft | 532 kts | 92° |
| 2026-05-09 18:36 | 26.32462 | 53.95162 | 34839 ft | 532 kts | 92° |
| 2026-05-09 18:36 | 26.32603 | 54.03413 | 34834 ft | 532 kts | 92° |
| 2026-05-09 18:37 | 26.32733 | 54.11646 | 34833 ft | 531 kts | 92° |
| 2026-05-09 18:37 | 26.32855 | 54.19887 | 34831 ft | 531 kts | 92° |
| 2026-05-09 18:38 | 26.32970 | 54.28064 | 34826 ft | 531 kts | 92° |
| 2026-05-09 18:38 | 26.33082 | 54.36288 | 34824 ft | 531 kts | 92° |
| 2026-05-09 18:40 | 26.33479 | 54.69110 | 34814 ft | 530 kts | 93° |
| 2026-05-09 18:41 | 26.33565 | 54.77320 | 34815 ft | 529 kts | 93° |
| 2026-05-09 18:41 | 26.33674 | 54.85528 | 34809 ft | 530 kts | 89° |
| 2026-05-09 18:42 | 26.35209 | 54.93588 | 34809 ft | 536 kts | 70° |
| 2026-05-09 18:42 | 26.38361 | 55.01144 | 34803 ft | 538 kts | 65° |
| 2026-05-09 18:43 | 26.41563 | 55.08624 | 34803 ft | 538 kts | 65° |
| 2026-05-09 18:43 | 26.44778 | 55.16156 | 34801 ft | 538 kts | 65° |
| 2026-05-09 18:44 | 26.47996 | 55.23694 | 34794 ft | 538 kts | 65° |
| 2026-05-09 18:44 | 26.51201 | 55.31226 | 34796 ft | 537 kts | 65° |
| 2026-05-09 18:45 | 26.54385 | 55.38706 | 34791 ft | 537 kts | 65° |
| 2026-05-09 18:45 | 26.57577 | 55.46238 | 34792 ft | 537 kts | 65° |
| 2026-05-09 18:46 | 26.60764 | 55.53788 | 34794 ft | 537 kts | 66° |
| 2026-05-09 18:46 | 26.63941 | 55.61333 | 34798 ft | 537 kts | 65° |
| 2026-05-09 18:47 | 26.67109 | 55.68847 | 34797 ft | 537 kts | 65° |
| 2026-05-09 18:47 | 26.70289 | 55.76400 | 34802 ft | 537 kts | 65° |
| 2026-05-09 18:48 | 26.73460 | 55.83973 | 34789 ft | 538 kts | 65° |
| 2026-05-09 18:48 | 26.77175 | 55.91227 | 34795 ft | 538 kts | 51° |
| 2026-05-09 18:49 | 26.82378 | 55.97206 | 34792 ft | 537 kts | 41° |
| 2026-05-09 18:49 | 26.87809 | 56.02970 | 34792 ft | 538 kts | 41° |
| 2026-05-09 18:50 | 26.93191 | 56.08694 | 34807 ft | 537 kts | 42° |
| 2026-05-09 18:50 | 26.98411 | 56.14699 | 34798 ft | 539 kts | 53° |
| 2026-05-09 18:50 | 27.00384 | 56.18254 | 34801 ft | 539 kts | 64° |
| 2026-05-09 18:51 | 27.01782 | 56.22147 | 34802 ft | 537 kts | 75° |
| 2026-05-09 18:51 | 27.02570 | 56.26225 | 34799 ft | 534 kts | 86° |
| 2026-05-09 18:51 | 27.02730 | 56.30365 | 34796 ft | 529 kts | 97° |
| 2026-05-09 18:52 | 27.02156 | 56.38518 | 34797 ft | 529 kts | 98° |
| 2026-05-09 18:52 | 27.01556 | 56.46737 | 34799 ft | 528 kts | 98° |
| 2026-05-09 18:53 | 27.00950 | 56.54934 | 34800 ft | 528 kts | 98° |
| 2026-05-09 18:53 | 27.00347 | 56.63145 | 34805 ft | 527 kts | 98° |
| 2026-05-09 18:54 | 26.99739 | 56.71278 | 34815 ft | 527 kts | 98° |
| 2026-05-09 18:54 | 26.99125 | 56.79462 | 34818 ft | 527 kts | 98° |
| 2026-05-09 18:55 | 26.98503 | 56.87638 | 34812 ft | 526 kts | 98° |
| 2026-05-09 18:55 | 26.97876 | 56.95807 | 34822 ft | 526 kts | 98° |
| 2026-05-09 18:56 | 26.97247 | 57.03912 | 34824 ft | 526 kts | 98° |
| 2026-05-09 18:56 | 26.96613 | 57.12083 | 34827 ft | 526 kts | 98° |
| 2026-05-09 18:57 | 26.95980 | 57.20266 | 34834 ft | 527 kts | 98° |
| 2026-05-09 18:57 | 26.95346 | 57.28438 | 34841 ft | 527 kts | 98° |
| 2026-05-09 18:58 | 26.94697 | 57.36563 | 34859 ft | 526 kts | 98° |
| 2026-05-09 18:58 | 26.94045 | 57.44726 | 34869 ft | 526 kts | 98° |
| 2026-05-09 18:59 | 26.93386 | 57.52887 | 34884 ft | 526 kts | 98° |
| 2026-05-09 18:59 | 26.92724 | 57.61039 | 34893 ft | 526 kts | 98° |
| 2026-05-09 19:00 | 26.92065 | 57.69143 | 34905 ft | 525 kts | 98° |
| 2026-05-09 19:00 | 26.91056 | 57.81362 | 34916 ft | 525 kts | 98° |
| 2026-05-09 19:01 | 26.90390 | 57.89492 | 34918 ft | 525 kts | 98° |
| 2026-05-09 19:01 | 26.89718 | 57.97644 | 34916 ft | 525 kts | 98° |
| 2026-05-09 19:02 | 26.89051 | 58.05730 | 34910 ft | 526 kts | 95° |
| 2026-05-09 19:02 | 26.89049 | 58.13919 | 34905 ft | 526 kts | 92° |
| 2026-05-09 19:03 | 26.89098 | 58.22116 | 34898 ft | 526 kts | 92° |
| 2026-05-09 19:03 | 26.89138 | 58.30313 | 34887 ft | 525 kts | 92° |
| 2026-05-09 19:04 | 26.89169 | 58.38436 | 34889 ft | 525 kts | 92° |
| 2026-05-09 19:04 | 26.89190 | 58.46622 | 34885 ft | 525 kts | 92° |
| 2026-05-09 19:05 | 26.89215 | 58.54805 | 34876 ft | 525 kts | 92° |
| 2026-05-09 19:05 | 26.89237 | 58.62985 | 34875 ft | 525 kts | 92° |
| 2026-05-09 19:06 | 26.89256 | 58.71108 | 34868 ft | 524 kts | 92° |
| 2026-05-09 19:06 | 26.89263 | 58.79272 | 34862 ft | 524 kts | 92° |
| 2026-05-09 19:07 | 26.89263 | 58.87429 | 34861 ft | 523 kts | 92° |
| 2026-05-09 19:07 | 26.89265 | 58.95573 | 34857 ft | 523 kts | 92° |
| 2026-05-09 19:08 | 26.89260 | 59.03657 | 34851 ft | 522 kts | 92° |
| 2026-05-09 19:08 | 26.89249 | 59.11784 | 34852 ft | 522 kts | 92° |
| 2026-05-09 19:09 | 26.89245 | 59.19909 | 34850 ft | 521 kts | 92° |
| 2026-05-09 19:09 | 26.89230 | 59.28023 | 34852 ft | 521 kts | 92° |
| 2026-05-09 19:10 | 26.89212 | 59.36075 | 34850 ft | 520 kts | 92° |
| 2026-05-09 19:10 | 26.89201 | 59.44170 | 34855 ft | 520 kts | 91° |
| 2026-05-09 19:11 | 26.89415 | 59.52287 | 34853 ft | 521 kts | 89° |
| 2026-05-09 19:11 | 26.89771 | 59.60380 | 34855 ft | 521 kts | 89° |
| 2026-05-09 19:12 | 26.90087 | 59.68427 | 34857 ft | 520 kts | 90° |
| 2026-05-09 19:12 | 26.90338 | 59.76523 | 34853 ft | 520 kts | 90° |
| 2026-05-09 19:13 | 26.90561 | 59.84611 | 34863 ft | 520 kts | 90° |
| 2026-05-09 19:13 | 26.90794 | 59.92713 | 34863 ft | 520 kts | 90° |
| 2026-05-09 19:14 | 26.91036 | 60.00804 | 34864 ft | 520 kts | 90° |
| 2026-05-09 19:14 | 26.91274 | 60.08848 | 34866 ft | 520 kts | 90° |
| 2026-05-09 19:15 | 26.91504 | 60.16945 | 34872 ft | 520 kts | 90° |
| 2026-05-09 19:15 | 26.91736 | 60.25040 | 34877 ft | 520 kts | 90° |
| 2026-05-09 19:16 | 26.91962 | 60.33095 | 34881 ft | 520 kts | 90° |
| 2026-05-09 19:16 | 26.92177 | 60.41188 | 34886 ft | 520 kts | 90° |
| 2026-05-09 19:17 | 26.92385 | 60.49290 | 34889 ft | 520 kts | 90° |
| 2026-05-09 19:17 | 26.92591 | 60.57401 | 34896 ft | 520 kts | 90° |
| 2026-05-09 19:18 | 26.92790 | 60.65455 | 34904 ft | 521 kts | 90° |
| 2026-05-09 19:18 | 26.92976 | 60.73558 | 34907 ft | 520 kts | 90° |
| 2026-05-09 19:19 | 26.93134 | 60.81672 | 34915 ft | 520 kts | 90° |
| 2026-05-09 19:19 | 26.93280 | 60.89776 | 34917 ft | 520 kts | 90° |
| 2026-05-09 19:20 | 26.93417 | 60.97820 | 34919 ft | 520 kts | 90° |
| 2026-05-09 19:20 | 26.93552 | 61.05916 | 34923 ft | 520 kts | 90° |
| 2026-05-09 19:21 | 26.93694 | 61.14013 | 34934 ft | 519 kts | 90° |
| 2026-05-09 19:21 | 26.93832 | 61.22106 | 34937 ft | 519 kts | 90° |
| 2026-05-09 19:22 | 26.93961 | 61.30139 | 34939 ft | 519 kts | 90° |
| 2026-05-09 19:22 | 26.94076 | 61.38213 | 34938 ft | 519 kts | 90° |
| 2026-05-09 19:23 | 26.94192 | 61.46293 | 34943 ft | 518 kts | 90° |
| 2026-05-09 19:23 | 26.94301 | 61.54362 | 34942 ft | 518 kts | 89° |
| 2026-05-09 19:24 | 26.94412 | 61.62429 | 34940 ft | 517 kts | 90° |
| 2026-05-09 19:24 | 26.94513 | 61.70418 | 34937 ft | 516 kts | 89° |
| 2026-05-09 19:25 | 26.94625 | 61.78468 | 34934 ft | 516 kts | 89° |
| 2026-05-09 19:25 | 26.94732 | 61.86498 | 34934 ft | 515 kts | 89° |
| 2026-05-09 19:26 | 26.94822 | 61.94470 | 34932 ft | 515 kts | 90° |
| 2026-05-09 19:26 | 26.94901 | 62.02476 | 34924 ft | 514 kts | 90° |
| 2026-05-09 19:27 | 26.94978 | 62.10490 | 34924 ft | 514 kts | 89° |
| 2026-05-09 19:27 | 26.95055 | 62.18498 | 34925 ft | 513 kts | 90° |
| 2026-05-09 19:28 | 26.95131 | 62.26501 | 34924 ft | 513 kts | 90° |
| 2026-05-09 19:28 | 26.95204 | 62.34435 | 34923 ft | 513 kts | 90° |
| 2026-05-09 19:29 | 26.95268 | 62.42418 | 34925 ft | 513 kts | 90° |
| 2026-05-09 19:29 | 26.95323 | 62.50416 | 34924 ft | 512 kts | 90° |
| 2026-05-09 19:30 | 26.95377 | 62.58339 | 34923 ft | 512 kts | 90° |
| 2026-05-09 19:30 | 26.95421 | 62.66313 | 34923 ft | 511 kts | 90° |
| 2026-05-09 19:31 | 26.95469 | 62.74274 | 34919 ft | 511 kts | 90° |
| 2026-05-09 19:31 | 26.95515 | 62.82238 | 34915 ft | 511 kts | 90° |
| 2026-05-09 19:32 | 26.95552 | 62.90140 | 34913 ft | 510 kts | 90° |
| 2026-05-09 19:32 | 26.95586 | 62.98093 | 34911 ft | 510 kts | 90° |
| 2026-05-09 19:33 | 26.95614 | 63.06046 | 34909 ft | 510 kts | 90° |
| 2026-05-09 19:33 | 26.95635 | 63.13988 | 34903 ft | 510 kts | 90° |
| 2026-05-09 19:34 | 26.95652 | 63.21878 | 34900 ft | 510 kts | 90° |
| 2026-05-09 19:34 | 26.95660 | 63.29817 | 34896 ft | 510 kts | 90° |
| 2026-05-09 19:35 | 26.95664 | 63.37762 | 34895 ft | 510 kts | 90° |
| 2026-05-09 19:35 | 26.95643 | 63.45703 | 34889 ft | 510 kts | 90° |
| 2026-05-09 19:36 | 26.95606 | 63.53609 | 34891 ft | 510 kts | 90° |
| 2026-05-09 19:36 | 26.95574 | 63.61560 | 34894 ft | 511 kts | 90° |
| 2026-05-09 19:37 | 26.95546 | 63.69517 | 34893 ft | 511 kts | 90° |
| 2026-05-09 19:37 | 26.95510 | 63.77482 | 34900 ft | 511 kts | 90° |
| 2026-05-09 19:38 | 26.95470 | 63.85393 | 34900 ft | 511 kts | 90° |
| 2026-05-09 19:38 | 26.95425 | 63.93362 | 34905 ft | 511 kts | 90° |
| 2026-05-09 19:39 | 26.95369 | 64.01322 | 34907 ft | 511 kts | 90° |
| 2026-05-09 19:39 | 26.95310 | 64.09299 | 34910 ft | 511 kts | 90° |
| 2026-05-09 19:40 | 26.95888 | 64.17200 | 34919 ft | 510 kts | 78° |
| 2026-05-09 19:40 | 26.97258 | 64.24953 | 34922 ft | 510 kts | 78° |
| 2026-05-09 19:41 | 26.98614 | 64.32746 | 34927 ft | 510 kts | 78° |
| 2026-05-09 19:41 | 26.99967 | 64.40552 | 34926 ft | 510 kts | 78° |
| 2026-05-09 19:42 | 27.01316 | 64.48357 | 34928 ft | 509 kts | 78° |
| 2026-05-09 19:42 | 27.02664 | 64.56154 | 34929 ft | 509 kts | 78° |
| 2026-05-09 19:43 | 27.03996 | 64.63896 | 34935 ft | 509 kts | 78° |
| 2026-05-09 19:43 | 27.05328 | 64.71689 | 34932 ft | 509 kts | 78° |
| 2026-05-09 19:44 | 27.06658 | 64.79497 | 34935 ft | 509 kts | 78° |
| 2026-05-09 19:44 | 27.07983 | 64.87292 | 34938 ft | 509 kts | 78° |
| 2026-05-09 19:45 | 27.09301 | 64.95047 | 34934 ft | 509 kts | 78° |
| 2026-05-09 19:45 | 27.10620 | 65.02842 | 34940 ft | 509 kts | 78° |
| 2026-05-09 19:46 | 27.11936 | 65.10651 | 34939 ft | 509 kts | 78° |
| 2026-05-09 19:46 | 27.13239 | 65.18468 | 34940 ft | 509 kts | 78° |
| 2026-05-09 19:47 | 27.14540 | 65.26289 | 34945 ft | 510 kts | 78° |
| 2026-05-09 19:47 | 27.15841 | 65.34055 | 34944 ft | 510 kts | 78° |
| 2026-05-09 19:48 | 27.17143 | 65.41883 | 34946 ft | 510 kts | 78° |
| 2026-05-09 19:48 | 27.18437 | 65.49702 | 34946 ft | 510 kts | 78° |
| 2026-05-09 19:49 | 27.19728 | 65.57531 | 34944 ft | 510 kts | 78° |
| 2026-05-09 19:49 | 27.21003 | 65.65316 | 34944 ft | 510 kts | 78° |
| 2026-05-09 19:50 | 27.22268 | 65.73155 | 34943 ft | 509 kts | 78° |
| 2026-05-09 19:50 | 27.23539 | 65.80978 | 34942 ft | 509 kts | 78° |
| 2026-05-09 19:51 | 27.24812 | 65.88812 | 34944 ft | 509 kts | 78° |
| 2026-05-09 19:51 | 27.26079 | 65.96635 | 34942 ft | 509 kts | 78° |
| 2026-05-09 19:52 | 27.27331 | 66.04413 | 34944 ft | 509 kts | 78° |
| 2026-05-09 19:52 | 27.28592 | 66.12250 | 34942 ft | 509 kts | 78° |
| 2026-05-09 19:53 | 27.29850 | 66.20096 | 34946 ft | 510 kts | 78° |
| 2026-05-09 19:53 | 27.31098 | 66.27931 | 34947 ft | 510 kts | 78° |
| 2026-05-09 19:54 | 27.32336 | 66.35739 | 34944 ft | 510 kts | 78° |
| 2026-05-09 19:54 | 27.33572 | 66.43596 | 34945 ft | 511 kts | 78° |
| 2026-05-09 19:55 | 27.34816 | 66.51477 | 34942 ft | 511 kts | 78° |
| 2026-05-09 19:56 | 27.36672 | 66.63213 | 34927 ft | 510 kts | 78° |
| 2026-05-09 19:56 | 27.37896 | 66.71069 | 34921 ft | 511 kts | 78° |
| 2026-05-09 19:57 | 27.39108 | 66.78943 | 34917 ft | 510 kts | 78° |
| 2026-05-09 19:57 | 27.40322 | 66.86812 | 34902 ft | 510 kts | 78° |
| 2026-05-09 19:58 | 27.41531 | 66.94627 | 34894 ft | 510 kts | 78° |
| 2026-05-09 19:58 | 27.42739 | 67.02481 | 34877 ft | 510 kts | 79° |
| 2026-05-09 19:59 | 27.43947 | 67.10350 | 34861 ft | 510 kts | 78° |
| 2026-05-09 19:59 | 27.45145 | 67.18211 | 34833 ft | 510 kts | 78° |
| 2026-05-09 20:00 | 27.46352 | 67.26068 | 34815 ft | 509 kts | 78° |
| 2026-05-09 20:00 | 27.47689 | 67.33840 | 34790 ft | 509 kts | 76° |
| 2026-05-09 20:01 | 27.49100 | 67.41649 | 34767 ft | 509 kts | 77° |
| 2026-05-09 20:01 | 27.50476 | 67.49469 | 34748 ft | 509 kts | 77° |
| 2026-05-09 20:02 | 27.51812 | 67.57299 | 34740 ft | 509 kts | 77° |
| 2026-05-09 20:02 | 27.53139 | 67.65091 | 34721 ft | 509 kts | 77° |
| 2026-05-09 20:03 | 27.55146 | 67.76847 | 34716 ft | 509 kts | 77° |
| 2026-05-09 20:03 | 27.56482 | 67.84692 | 34710 ft | 509 kts | 77° |
| 2026-05-09 20:04 | 27.57804 | 67.92534 | 34712 ft | 509 kts | 77° |
| 2026-05-09 20:04 | 27.59126 | 68.00377 | 34712 ft | 509 kts | 77° |
| 2026-05-09 20:05 | 27.60437 | 68.08158 | 34715 ft | 509 kts | 77° |